createdAt,value
2022-08-14T04:00:43.207Z,56.00
2022-08-14T04:05:37.939Z,104.00
2022-08-14T04:10:33.046Z,176.00
2022-08-14T04:15:52.740Z,288.00
2022-08-14T04:20:33.413Z,428.00
2022-08-14T04:25:33.362Z,616.00
2022-08-14T04:30:33.102Z,856.00
2022-08-14T04:35:55.395Z,1128.00
2022-08-14T04:40:35.365Z,1440.00
2022-08-14T04:45:33.147Z,1792.00
2022-08-14T04:50:37.978Z,2168.00
2022-08-14T04:55:33.041Z,2492.00
2022-08-14T05:00:31.991Z,2924.00
2022-08-14T05:05:32.264Z,3172.00
2022-08-14T05:10:31.882Z,6456.00
2022-08-14T05:15:32.036Z,5076.00
2022-08-14T05:21:04.295Z,5440.00
2022-08-14T05:25:34.251Z,7552.00
2022-08-14T05:30:31.668Z,32992.00
2022-08-14T05:35:31.611Z,34048.00
2022-08-14T05:40:31.561Z,37824.00
2022-08-14T05:45:31.504Z,38080.00
2022-08-14T05:50:31.453Z,39936.00
2022-08-14T05:55:31.399Z,39744.00
2022-08-14T06:00:36.938Z,40672.00
2022-08-14T06:05:32.288Z,41056.00
2022-08-14T06:10:31.246Z,35648.00
2022-08-14T06:15:31.193Z,39136.00
2022-08-14T06:20:31.142Z,36000.00
2022-08-14T06:25:31.086Z,40608.00
2022-08-14T06:30:46.184Z,41984.00
2022-08-14T06:35:31.984Z,41088.00
2022-08-14T06:40:31.009Z,42208.00
2022-08-14T06:45:30.882Z,41024.00
2022-08-14T06:50:30.879Z,37792.00
2022-08-14T06:55:30.777Z,36192.00
2022-08-14T07:00:31.481Z,32352.00
2022-08-14T07:05:30.677Z,14380.00
2022-08-14T07:10:30.625Z,15172.00
2022-08-14T07:15:33.721Z,25248.00
2022-08-14T07:20:32.021Z,19488.00
2022-08-14T07:25:32.700Z,13840.00
2022-08-14T07:30:33.703Z,11336.00
2022-08-14T07:35:37.393Z,10864.00
2022-08-14T07:40:31.319Z,10560.00
2022-08-14T07:45:32.045Z,10152.00
2022-08-14T07:50:34.441Z,9800.00
2022-08-14T07:55:30.170Z,9320.00
2022-08-14T08:00:31.521Z,8824.00
2022-08-14T08:05:30.063Z,8392.00
2022-08-14T08:10:46.517Z,8132.00
2022-08-14T08:15:30.997Z,7932.00
2022-08-14T08:20:29.914Z,7556.00
2022-08-14T08:25:29.860Z,7600.00
2022-08-14T08:30:29.812Z,7544.00
2022-08-14T08:35:46.297Z,7228.00
2022-08-14T08:40:31.186Z,7036.00
2022-08-14T08:45:29.654Z,7152.00
2022-08-14T08:50:31.384Z,7004.00
2022-08-14T08:55:29.555Z,6960.00
2022-08-14T09:00:29.558Z,6920.00
2022-08-14T09:05:29.451Z,6732.00
2022-08-14T09:10:29.403Z,6628.00
2022-08-14T09:15:42.403Z,6656.00
2022-08-14T09:20:30.829Z,6680.00
2022-08-14T09:26:00.674Z,6748.00
2022-08-14T09:30:32.987Z,6792.00
2022-08-14T09:35:29.147Z,6792.00
2022-08-14T09:40:29.371Z,6768.00
2022-08-14T09:45:30.431Z,6864.00
2022-08-14T09:50:30.016Z,6908.00
2022-08-14T09:55:31.298Z,6968.00
2022-08-14T10:00:30.690Z,6892.00
2022-08-14T10:05:28.845Z,6924.00
2022-08-14T10:10:28.799Z,7160.00
2022-08-14T10:15:29.975Z,7388.00
2022-08-14T10:20:41.491Z,7468.00
2022-08-14T10:25:28.653Z,7868.00
2022-08-14T10:30:28.587Z,8140.00
2022-08-14T10:35:31.091Z,8488.00
2022-08-14T10:40:44.376Z,8620.00
2022-08-14T10:45:29.439Z,8920.00
2022-08-14T10:50:28.385Z,9132.00
2022-08-14T10:55:28.335Z,9020.00
2022-08-14T11:00:29.473Z,9260.00
2022-08-14T11:05:28.525Z,9368.00
2022-08-14T11:10:28.177Z,9528.00
2022-08-14T11:15:28.138Z,9744.00
2022-08-14T11:20:28.083Z,10336.00
2022-08-14T11:25:44.088Z,8244.00
2022-08-14T11:30:51.337Z,8904.00
2022-08-14T11:35:44.234Z,9488.00
2022-08-14T11:40:29.346Z,9336.00
2022-08-14T11:45:29.850Z,7392.00
2022-08-14T11:50:36.027Z,9720.00
2022-08-14T11:55:28.737Z,9608.00
2022-08-14T12:00:31.541Z,7004.00
2022-08-14T12:05:27.629Z,9564.00
2022-08-14T12:10:39.079Z,9392.00
2022-08-14T12:15:28.532Z,8600.00
2022-08-14T12:20:32.176Z,7460.00
2022-08-14T12:25:27.471Z,7384.00
2022-08-14T12:30:27.375Z,7556.00
2022-08-14T12:35:28.451Z,7356.00
2022-08-14T12:40:27.278Z,7292.00
2022-08-14T12:45:28.181Z,7168.00
2022-08-14T12:50:27.185Z,6892.00
2022-08-14T12:55:32.776Z,6968.00
2022-08-14T13:00:28.076Z,7412.00
2022-08-14T13:05:27.499Z,7964.00
2022-08-14T13:10:47.030Z,8140.00
2022-08-14T13:15:27.927Z,8356.00
2022-08-14T13:20:26.882Z,8480.00
2022-08-14T13:25:27.833Z,8444.00
2022-08-14T13:30:26.781Z,8440.00
2022-08-14T13:35:26.732Z,8808.00
2022-08-14T13:40:27.105Z,6328.00
2022-08-14T13:45:33.616Z,9352.00
2022-08-14T13:50:27.582Z,6696.00
2022-08-14T13:55:28.035Z,9368.00
2022-08-14T14:00:32.702Z,8992.00
2022-08-14T14:05:27.426Z,8808.00
2022-08-14T14:10:28.397Z,8728.00
2022-08-14T14:15:33.909Z,7092.00
2022-08-14T14:20:34.557Z,8128.00
2022-08-14T14:25:26.228Z,8132.00
2022-08-14T14:30:46.190Z,8092.00
2022-08-14T14:35:32.768Z,8344.00
2022-08-14T14:40:52.304Z,7668.00
2022-08-14T14:45:27.031Z,7344.00
2022-08-14T14:50:25.982Z,7488.00
2022-08-14T14:55:25.935Z,7004.00
2022-08-14T15:00:30.915Z,5496.00
2022-08-14T15:05:28.318Z,5096.00
2022-08-14T15:10:26.878Z,5236.00
2022-08-14T15:15:25.729Z,5220.00
2022-08-14T15:20:30.159Z,4680.00
2022-08-14T15:25:26.629Z,4256.00
2022-08-14T15:30:32.537Z,4580.00
2022-08-14T15:35:28.049Z,4720.00
2022-08-14T15:40:25.578Z,5280.00
2022-08-14T15:45:25.513Z,5384.00
2022-08-14T15:50:25.375Z,5812.00
2022-08-14T15:55:25.321Z,8020.00
2022-08-14T16:00:40.432Z,7808.00
2022-08-14T16:05:26.216Z,7648.00
2022-08-14T16:10:30.091Z,7284.00
2022-08-14T16:15:25.115Z,6448.00
2022-08-14T16:20:41.073Z,4916.00
2022-08-14T16:25:35.414Z,5372.00
2022-08-14T16:30:27.830Z,5944.00
2022-08-14T16:35:24.918Z,4824.00
2022-08-14T16:45:24.817Z,4720.00
2022-08-14T16:50:42.972Z,3928.00
2022-08-14T16:55:30.306Z,2980.00
2022-08-14T17:00:28.000Z,2940.00
2022-08-14T17:05:24.609Z,3148.00
2022-08-14T17:10:28.205Z,3072.00
2022-08-14T17:15:24.508Z,2812.00
2022-08-14T17:20:53.187Z,2548.00
2022-08-14T17:25:25.401Z,2244.00
2022-08-14T17:30:32.200Z,2016.00
2022-08-14T17:35:25.301Z,1896.00
2022-08-14T17:40:25.782Z,1816.00
2022-08-14T17:45:26.630Z,1740.00
2022-08-14T17:50:59.798Z,1628.00
2022-08-14T17:56:01.455Z,1464.00
2022-08-14T18:00:25.038Z,1268.00
2022-08-14T18:06:07.755Z,1096.00
2022-08-14T18:10:55.234Z,952.00
2022-08-14T18:15:33.694Z,800.00
2022-08-14T18:21:25.562Z,632.00
2022-08-14T18:25:24.783Z,492.00
2022-08-14T18:30:33.352Z,404.00
2022-08-14T18:35:45.367Z,332.00
2022-08-14T18:40:34.659Z,260.00
2022-08-14T18:45:28.705Z,192.00
2022-08-14T18:50:27.679Z,132.00
2022-08-14T18:55:23.458Z,92.00
2022-08-14T19:00:23.404Z,60.00
2022-08-14T19:05:24.354Z,36.00
2022-08-14T19:10:23.309Z,20.00
2022-08-14T19:15:26.056Z,8.00
2022-08-14T19:20:23.190Z,4.00
2022-08-14T19:25:23.137Z,0.00
2022-08-14T19:30:23.088Z,0.00
2022-08-14T19:35:23.034Z,0.00
2022-08-14T19:40:23.044Z,0.00
2022-08-14T19:45:22.932Z,0.00
2022-08-14T19:50:30.951Z,0.00
2022-08-14T19:55:34.436Z,0.00
2022-08-14T20:00:29.174Z,0.00
2022-08-14T20:05:23.724Z,0.00
2022-08-14T20:11:04.042Z,0.00
2022-08-14T20:15:23.615Z,0.00
2022-08-14T20:20:31.588Z,0.00
2022-08-14T20:25:23.511Z,0.00
2022-08-14T20:30:34.958Z,0.00
2022-08-14T20:35:23.411Z,0.00
2022-08-14T20:40:22.499Z,0.00
2022-08-14T20:45:24.144Z,0.00
2022-08-14T20:50:25.441Z,0.00
2022-08-14T20:55:22.215Z,0.00
2022-08-14T21:00:22.137Z,0.00
2022-08-14T21:05:33.997Z,0.00
2022-08-14T21:10:35.992Z,0.00
2022-08-14T21:15:22.987Z,0.00
2022-08-14T21:20:26.982Z,0.00
2022-08-14T21:25:22.868Z,0.00
2022-08-14T21:30:21.818Z,0.00
2022-08-14T21:35:23.020Z,0.00
2022-08-14T21:40:42.689Z,0.00
2022-08-14T21:45:22.662Z,0.00
2022-08-14T21:50:39.431Z,0.00
2022-08-14T21:55:23.698Z,0.00
2022-08-14T22:00:35.301Z,0.00
2022-08-14T22:05:22.447Z,0.00
2022-08-14T22:10:22.792Z,0.00
2022-08-14T22:15:21.931Z,0.00
2022-08-14T22:20:21.290Z,0.00
2022-08-14T22:25:21.387Z,0.00
2022-08-14T22:30:21.183Z,0.00
2022-08-14T22:35:23.512Z,0.00
2022-08-14T22:41:01.140Z,0.00
2022-08-14T22:45:22.024Z,0.00
2022-08-14T22:50:30.780Z,0.00
2022-08-14T22:55:21.920Z,0.00
2022-08-14T23:00:25.733Z,0.00
2022-08-14T23:05:40.303Z,0.00
2022-08-14T23:10:31.647Z,0.00
2022-08-14T23:15:21.696Z,0.00
2022-08-14T23:20:20.648Z,0.00
2022-08-14T23:25:57.462Z,0.00
